createdAt,value
2023-05-24T00:00:07.513Z,22.67
2023-05-24T00:02:34.558Z,19.83
2023-05-24T00:05:01.643Z,21.45
2023-05-24T00:07:28.657Z,23.70
2023-05-24T00:09:55.585Z,24.73
2023-05-24T00:12:22.484Z,19.77
2023-05-24T00:14:49.392Z,22.90
2023-05-24T00:17:16.337Z,22.73
2023-05-24T00:19:43.220Z,23.45
2023-05-24T00:22:10.107Z,25.40
2023-05-24T00:24:36.991Z,25.38
2023-05-24T00:27:04.072Z,24.40
2023-05-24T00:29:32.310Z,19.75
2023-05-24T00:31:59.426Z,24.25
2023-05-24T00:34:26.355Z,22.10
2023-05-24T00:36:53.262Z,27.85
2023-05-24T00:39:20.238Z,23.10
2023-05-24T00:41:47.172Z,28.17
2023-05-24T00:44:14.082Z,22.10
2023-05-24T00:46:41.691Z,21.63
2023-05-24T00:49:09.200Z,23.93
2023-05-24T00:51:37.189Z,29.77
2023-05-24T00:54:04.336Z,31.80
2023-05-24T00:56:31.510Z,31.88
2023-05-24T00:58:58.907Z,31.92
2023-05-24T01:01:26.060Z,29.35
2023-05-24T01:03:54.030Z,29.38
2023-05-24T01:06:21.556Z,29.73
2023-05-24T01:09:09.741Z,34.03
2023-05-24T01:11:55.269Z,36.10
2023-05-24T01:14:47.165Z,37.50
2023-05-24T01:17:23.823Z,39.38
2023-05-24T01:20:07.269Z,36.97
2023-05-24T01:22:48.924Z,33.60
2023-05-24T01:25:54.452Z,30.52
2023-05-24T01:28:22.477Z,34.67
2023-05-24T01:30:49.633Z,32.95
2023-05-24T01:33:16.630Z,36.33
2023-05-24T01:35:43.569Z,42.13
2023-05-24T01:38:10.825Z,38.00
2023-05-24T01:40:38.705Z,35.63
2023-05-24T01:43:15.892Z,34.05
2023-05-24T01:45:59.439Z,38.80
2023-05-24T01:48:32.168Z,42.75
2023-05-24T01:51:00.571Z,41.00
2023-05-24T01:53:33.831Z,36.38
2023-05-24T01:56:03.795Z,39.55
2023-05-24T01:58:32.012Z,41.70
2023-05-24T02:00:59.637Z,40.33
2023-05-24T02:03:26.644Z,41.58
2023-05-24T02:05:53.596Z,38.50
2023-05-24T02:08:20.518Z,41.13
2023-05-24T02:10:47.504Z,44.95
2023-05-24T02:13:14.403Z,39.95
2023-05-24T02:15:41.346Z,35.13
2023-05-24T02:18:08.405Z,40.03
2023-05-24T02:20:35.457Z,39.95
2023-05-24T02:23:03.155Z,39.30
2023-05-24T02:25:30.229Z,40.17
2023-05-24T02:27:57.611Z,45.20
2023-05-24T02:30:24.597Z,40.47
2023-05-24T02:32:51.822Z,46.65
2023-05-24T02:35:18.862Z,39.72
2023-05-24T02:37:45.847Z,39.08
2023-05-24T02:40:13.080Z,37.90
2023-05-24T02:42:40.158Z,36.72
2023-05-24T02:45:07.739Z,38.73
2023-05-24T02:47:34.677Z,40.05
2023-05-24T02:50:01.596Z,40.03
2023-05-24T02:52:28.510Z,42.75
2023-05-24T02:54:55.405Z,36.42
2023-05-24T02:57:22.327Z,37.58
2023-05-24T02:59:49.297Z,40.37
2023-05-24T03:02:16.236Z,41.30
2023-05-24T03:04:43.261Z,49.38
2023-05-24T03:07:10.176Z,57.53
2023-05-24T03:09:37.084Z,38.28
2023-05-24T03:12:04.193Z,42.58
2023-05-24T03:14:31.106Z,39.33
2023-05-24T03:16:58.019Z,38.08
2023-05-24T03:19:24.935Z,40.50
2023-05-24T03:21:51.872Z,41.43
2023-05-24T03:24:18.823Z,41.17
2023-05-24T03:26:45.716Z,39.80
2023-05-24T03:29:12.719Z,34.60
2023-05-24T03:31:39.714Z,35.47
2023-05-24T03:34:06.629Z,34.42
2023-05-24T03:36:33.541Z,36.92
2023-05-24T03:39:00.494Z,47.17
2023-05-24T03:41:27.433Z,39.93
2023-05-24T03:43:54.383Z,38.88
2023-05-24T03:46:21.335Z,42.53
2023-05-24T03:48:49.229Z,38.55
2023-05-24T03:51:16.250Z,39.63
2023-05-24T03:53:43.141Z,40.90
2023-05-24T03:56:10.095Z,39.65
2023-05-24T03:58:37.033Z,41.50
2023-05-24T04:01:04.448Z,35.90
2023-05-24T04:03:31.515Z,40.50
2023-05-24T04:05:58.459Z,40.28
2023-05-24T04:08:25.371Z,39.45
2023-05-24T04:10:52.294Z,37.33
2023-05-24T04:13:19.151Z,40.95
2023-05-24T04:15:46.092Z,37.65
2023-05-24T04:18:13.142Z,35.97
2023-05-24T04:20:40.261Z,36.58
2023-05-24T04:23:07.279Z,34.25
2023-05-24T04:25:34.153Z,35.00
2023-05-24T04:28:01.131Z,35.33
2023-05-24T04:30:28.164Z,37.25
2023-05-24T04:32:55.111Z,36.40
2023-05-24T04:35:22.145Z,41.13
2023-05-24T04:37:49.067Z,35.30
2023-05-24T04:40:16.075Z,36.83
2023-05-24T04:42:43.098Z,37.10
2023-05-24T04:45:10.418Z,41.58
2023-05-24T04:47:37.339Z,41.67
2023-05-24T04:50:04.855Z,36.90
2023-05-24T04:52:44.281Z,35.90
2023-05-24T04:55:11.202Z,41.85
2023-05-24T04:57:38.103Z,40.45
2023-05-24T05:00:05.501Z,40.05
2023-05-24T05:02:33.062Z,38.65
2023-05-24T05:05:00.067Z,44.45
2023-05-24T05:07:27.023Z,45.17
2023-05-24T05:09:53.968Z,49.45
2023-05-24T05:12:20.898Z,58.40
2023-05-24T05:14:47.843Z,41.58
2023-05-24T05:17:14.774Z,38.47
2023-05-24T05:19:41.667Z,40.75
2023-05-24T05:22:08.573Z,41.20
2023-05-24T05:24:35.480Z,41.80
2023-05-24T05:27:02.394Z,42.42
2023-05-24T05:29:29.269Z,44.80
2023-05-24T05:31:56.256Z,47.85
2023-05-24T05:34:23.189Z,45.22
2023-05-24T05:36:50.084Z,37.40
2023-05-24T05:39:17.128Z,46.88
2023-05-24T05:41:45.693Z,39.85
2023-05-24T05:44:13.453Z,35.97
2023-05-24T05:46:40.612Z,37.78
2023-05-24T05:49:07.559Z,37.95
2023-05-24T05:51:34.463Z,41.25
2023-05-24T05:54:01.388Z,37.87
2023-05-24T05:56:28.288Z,43.78
2023-05-24T05:58:55.198Z,45.40
2023-05-24T06:01:23.728Z,46.75
2023-05-24T06:03:51.522Z,46.22
2023-05-24T06:06:18.612Z,52.78
2023-05-24T06:08:45.561Z,41.17
2023-05-24T06:11:12.475Z,36.45
2023-05-24T06:13:39.407Z,34.70
2023-05-24T06:16:06.510Z,36.23
2023-05-24T06:18:33.416Z,34.75
2023-05-24T06:21:00.299Z,33.83
2023-05-24T06:23:27.222Z,37.45
2023-05-24T06:25:54.189Z,36.77
2023-05-24T06:28:21.081Z,39.05
2023-05-24T06:30:47.991Z,37.83
2023-05-24T06:33:14.951Z,40.83
2023-05-24T06:35:41.842Z,39.70
2023-05-24T06:38:08.797Z,39.17
2023-05-24T06:40:35.755Z,42.75
2023-05-24T06:43:02.651Z,40.50
2023-05-24T06:45:29.561Z,44.92
2023-05-24T06:47:56.525Z,36.53
2023-05-24T06:50:23.592Z,44.13
2023-05-24T06:52:50.585Z,41.22
2023-05-24T06:55:17.506Z,37.22
2023-05-24T06:57:44.437Z,40.85
2023-05-24T07:00:11.944Z,37.28
2023-05-24T07:02:39.622Z,40.45
2023-05-24T07:05:07.325Z,40.35
2023-05-24T07:07:34.274Z,33.30
2023-05-24T07:10:01.179Z,35.40
2023-05-24T07:12:28.145Z,36.45
2023-05-24T07:14:55.029Z,35.67
2023-05-24T07:17:22.075Z,37.23
2023-05-24T07:19:52.037Z,28.48
2023-05-24T07:22:18.922Z,37.25
2023-05-24T07:24:45.875Z,31.05
2023-05-24T07:27:12.760Z,34.70
2023-05-24T07:29:39.688Z,34.35
2023-05-24T07:32:06.857Z,33.92
2023-05-24T07:34:33.778Z,41.87
2023-05-24T07:37:01.824Z,33.40
2023-05-24T07:39:28.798Z,38.08
2023-05-24T07:41:55.752Z,36.53
2023-05-24T07:44:22.885Z,28.77
2023-05-24T07:46:50.062Z,28.90
2023-05-24T07:49:17.394Z,27.05
2023-05-24T07:51:44.285Z,40.85
2023-05-24T07:54:11.294Z,33.33
2023-05-24T07:56:38.200Z,28.67
2023-05-24T07:59:05.136Z,28.40
2023-05-24T08:01:33.209Z,29.60
2023-05-24T08:04:00.613Z,30.90
2023-05-24T08:06:27.654Z,30.95
2023-05-24T08:08:54.588Z,30.80
2023-05-24T08:11:21.594Z,29.83
2023-05-24T08:13:48.579Z,28.27
2023-05-24T08:16:15.571Z,29.63
2023-05-24T08:18:42.488Z,27.20
2023-05-24T08:21:09.424Z,30.65
2023-05-24T08:23:36.382Z,26.20
2023-05-24T08:26:03.344Z,28.37
2023-05-24T08:28:30.329Z,32.60
2023-05-24T08:30:57.243Z,26.42
2023-05-24T08:33:24.242Z,28.60
2023-05-24T08:35:51.562Z,27.15
2023-05-24T08:38:18.973Z,25.73
2023-05-24T08:40:46.067Z,22.70
2023-05-24T08:43:13.297Z,23.00
2023-05-24T08:45:40.483Z,23.10
2023-05-24T08:48:07.697Z,23.55
2023-05-24T08:50:35.240Z,23.58
2023-05-24T08:53:02.587Z,21.02
2023-05-24T08:55:33.262Z,23.67
2023-05-24T08:58:01.162Z,23.55
2023-05-24T09:00:28.279Z,23.37
2023-05-24T09:02:57.493Z,23.80
2023-05-24T09:05:26.092Z,22.10
2023-05-24T09:07:54.500Z,21.40
2023-05-24T09:10:22.758Z,19.55
2023-05-24T09:12:55.482Z,21.75
2023-05-24T09:15:22.504Z,22.33
2023-05-24T09:17:49.569Z,19.20
2023-05-24T09:20:16.604Z,21.50
2023-05-24T09:22:44.096Z,25.17
2023-05-24T09:25:14.219Z,19.42
2023-05-24T09:27:41.250Z,18.58
2023-05-24T09:30:11.534Z,18.70
2023-05-24T09:32:38.704Z,19.42
2023-05-24T09:35:09.014Z,18.10
2023-05-24T09:37:37.352Z,18.55
2023-05-24T09:40:05.137Z,19.48
2023-05-24T09:42:32.075Z,20.90
2023-05-24T09:45:06.842Z,14.73
2023-05-24T09:47:34.962Z,17.05
2023-05-24T09:50:03.111Z,16.58
2023-05-24T09:52:30.163Z,15.57
2023-05-24T09:54:57.296Z,18.90
2023-05-24T09:57:24.631Z,21.40
2023-05-24T09:59:51.743Z,17.30
2023-05-24T10:02:21.588Z,17.10
2023-05-24T10:04:48.812Z,18.35
2023-05-24T10:07:16.564Z,22.08
2023-05-24T10:09:45.870Z,18.05
2023-05-24T10:12:12.839Z,20.85
2023-05-24T10:14:39.835Z,21.33
2023-05-24T10:17:08.059Z,22.35
2023-05-24T10:19:36.763Z,19.63
2023-05-24T10:22:08.018Z,19.30
2023-05-24T10:24:46.948Z,25.45
2023-05-24T10:27:18.169Z,24.27
2023-05-24T10:29:53.691Z,29.63
2023-05-24T10:32:22.685Z,21.65
2023-05-24T10:34:50.583Z,28.00
2023-05-24T10:37:20.515Z,28.92
2023-05-24T10:39:47.474Z,23.00
2023-05-24T10:42:14.468Z,25.75
2023-05-24T10:44:41.446Z,27.40
2023-05-24T10:47:10.691Z,25.65
2023-05-24T10:49:39.050Z,30.83
2023-05-24T10:52:10.780Z,26.50
2023-05-24T10:54:38.553Z,31.20
2023-05-24T10:57:07.476Z,31.67
2023-05-24T10:59:38.427Z,24.75
2023-05-24T11:02:07.922Z,26.10
2023-05-24T11:04:38.265Z,22.27
2023-05-24T11:07:06.525Z,28.15
2023-05-24T11:09:33.668Z,24.35
2023-05-24T11:12:03.151Z,26.77
2023-05-24T11:14:31.988Z,28.02
2023-05-24T11:16:59.505Z,26.60
2023-05-24T11:19:37.148Z,24.30
2023-05-24T11:22:08.931Z,28.60
2023-05-24T11:24:36.179Z,21.58
2023-05-24T11:27:03.177Z,23.48
2023-05-24T11:29:30.948Z,25.02
2023-05-24T11:31:59.677Z,23.80
2023-05-24T11:34:26.813Z,23.17
2023-05-24T11:36:53.879Z,23.37
2023-05-24T11:39:21.062Z,22.83
2023-05-24T11:41:48.003Z,20.40
2023-05-24T11:44:18.274Z,25.55
2023-05-24T11:46:46.249Z,24.73
2023-05-24T11:49:17.607Z,22.17
2023-05-24T11:51:44.605Z,21.75
2023-05-24T11:54:11.981Z,19.80
2023-05-24T11:56:38.997Z,21.10
2023-05-24T11:59:15.019Z,24.90
2023-05-24T12:01:42.065Z,19.70
2023-05-24T12:04:09.696Z,21.67
2023-05-24T12:06:40.257Z,20.92
2023-05-24T12:09:08.510Z,21.00
2023-05-24T12:11:39.628Z,20.50
2023-05-24T12:14:07.358Z,18.63
2023-05-24T12:16:36.556Z,19.90
2023-05-24T12:19:09.389Z,21.60
2023-05-24T12:21:44.225Z,23.27
2023-05-24T12:24:12.766Z,28.15
2023-05-24T12:26:47.617Z,24.20
2023-05-24T12:29:15.552Z,22.90
2023-05-24T12:31:48.249Z,20.98
2023-05-24T12:34:19.904Z,21.63
2023-05-24T12:36:49.706Z,19.98
2023-05-24T12:39:21.496Z,18.35
2023-05-24T12:41:55.572Z,18.33
2023-05-24T12:44:26.561Z,17.48
2023-05-24T12:46:54.757Z,18.88
2023-05-24T12:49:26.068Z,18.13
2023-05-24T12:51:54.632Z,15.38
2023-05-24T12:54:24.508Z,17.33
2023-05-24T12:56:55.654Z,19.47
2023-05-24T12:59:23.681Z,15.55
2023-05-24T13:01:50.639Z,16.25
2023-05-24T13:04:21.880Z,16.85
2023-05-24T13:06:49.364Z,21.93
2023-05-24T13:09:16.888Z,18.52
2023-05-24T13:11:43.873Z,30.52
2023-05-24T13:14:10.788Z,16.53
2023-05-24T13:16:37.754Z,17.15
2023-05-24T13:19:04.760Z,15.15
2023-05-24T13:21:31.662Z,17.98
2023-05-24T13:23:58.591Z,18.17
2023-05-24T13:26:25.551Z,16.88
2023-05-24T13:29:08.069Z,14.90
2023-05-24T13:31:39.395Z,14.48
2023-05-24T13:34:06.805Z,13.30
2023-05-24T13:36:35.336Z,14.00
2023-05-24T13:39:14.786Z,17.00
2023-05-24T13:41:43.781Z,14.13
2023-05-24T13:44:11.503Z,15.02
2023-05-24T13:46:39.349Z,13.15
2023-05-24T13:49:07.128Z,15.43
2023-05-24T13:51:34.231Z,14.88
2023-05-24T13:54:01.584Z,14.68
2023-05-24T13:56:28.923Z,16.48
2023-05-24T13:58:55.828Z,19.52
2023-05-24T14:01:22.798Z,19.88
2023-05-24T14:03:49.742Z,15.02
2023-05-24T14:06:16.827Z,14.23
2023-05-24T14:08:43.904Z,11.40
2023-05-24T14:11:10.877Z,15.38
2023-05-24T14:16:09.222Z,13.57
2023-05-24T14:18:36.279Z,12.75
2023-05-24T14:21:03.715Z,11.73
2023-05-24T14:23:31.160Z,10.87
2023-05-24T14:26:01.580Z,13.20
2023-05-24T14:28:28.559Z,13.90
2023-05-24T14:30:55.499Z,13.98
2023-05-24T14:33:22.403Z,12.87
2023-05-24T14:35:50.789Z,10.85
2023-05-24T14:38:17.671Z,11.90
2023-05-24T14:40:44.663Z,15.07
2023-05-24T14:43:11.648Z,11.80
2023-05-24T14:45:40.168Z,12.33
2023-05-24T14:48:08.062Z,15.13
2023-05-24T14:50:34.988Z,11.23
2023-05-24T14:53:02.010Z,10.88
2023-05-24T14:55:28.901Z,14.25
2023-05-24T14:57:55.837Z,13.18
2023-05-24T15:00:23.705Z,11.40
2023-05-24T15:02:52.165Z,13.27
2023-05-24T15:05:19.778Z,11.30
2023-05-24T15:07:47.297Z,12.63
2023-05-24T15:10:14.210Z,13.13
2023-05-24T15:12:41.158Z,12.90
2023-05-24T15:15:08.578Z,14.25
2023-05-24T15:17:35.581Z,11.93
2023-05-24T15:20:02.745Z,13.73
2023-05-24T15:22:29.689Z,12.23
2023-05-24T15:24:56.581Z,13.05
2023-05-24T15:27:23.470Z,13.52
2023-05-24T15:29:50.391Z,10.95
2023-05-24T15:32:17.311Z,10.95
2023-05-24T15:34:44.219Z,14.53
2023-05-24T15:37:11.123Z,11.88
2023-05-24T15:39:38.037Z,15.17
2023-05-24T15:42:05.094Z,16.30
2023-05-24T15:44:32.006Z,14.33
2023-05-24T15:46:59.100Z,18.73
2023-05-24T15:49:26.048Z,15.07
2023-05-24T15:54:22.791Z,14.07
2023-05-24T15:56:49.878Z,15.68
2023-05-24T15:59:16.844Z,13.80
2023-05-24T16:01:43.814Z,12.63
2023-05-24T16:04:10.748Z,15.38
2023-05-24T16:06:37.904Z,14.45
2023-05-24T16:09:04.850Z,13.95
2023-05-24T16:11:31.734Z,15.68
2023-05-24T16:13:58.644Z,16.67
2023-05-24T16:16:26.464Z,14.15
2023-05-24T16:18:53.354Z,12.98
2023-05-24T16:21:20.257Z,11.38
2023-05-24T16:23:47.210Z,12.95
2023-05-24T16:26:14.164Z,12.23
2023-05-24T16:28:41.154Z,14.90
2023-05-24T16:31:08.104Z,11.77
2023-05-24T16:33:34.992Z,13.53
2023-05-24T16:36:03.436Z,17.17
2023-05-24T16:38:30.633Z,17.88
2023-05-24T16:40:57.570Z,18.02
2023-05-24T16:43:24.483Z,16.85
2023-05-24T16:45:51.776Z,13.45
2023-05-24T16:48:18.917Z,12.52
2023-05-24T16:50:45.859Z,12.87
2023-05-24T16:53:12.803Z,13.43
2023-05-24T16:55:39.721Z,15.23
2023-05-24T16:58:06.657Z,12.75
2023-05-24T17:00:33.559Z,12.57
2023-05-24T17:03:00.643Z,14.35
2023-05-24T17:05:27.660Z,11.95
2023-05-24T17:07:55.209Z,13.75
2023-05-24T17:10:22.159Z,13.10
2023-05-24T17:12:49.126Z,10.30
2023-05-24T17:15:16.131Z,13.50
2023-05-24T17:17:43.062Z,12.13
2023-05-24T17:20:10.448Z,12.40
2023-05-24T17:22:37.416Z,11.80
2023-05-24T17:25:04.683Z,12.48
2023-05-24T17:27:31.744Z,12.00
2023-05-24T17:29:58.601Z,11.70
2023-05-24T17:32:25.630Z,14.80
2023-05-24T17:34:52.783Z,14.98
2023-05-24T17:37:19.716Z,15.47
2023-05-24T17:39:46.601Z,19.05
2023-05-24T17:42:13.529Z,20.33
2023-05-24T17:44:40.480Z,13.65
2023-05-24T17:47:07.410Z,12.60
2023-05-24T17:49:34.405Z,12.65
2023-05-24T17:52:01.433Z,13.98
2023-05-24T17:54:28.464Z,13.75
2023-05-24T17:56:55.411Z,12.05
2023-05-24T17:59:22.459Z,15.00
2023-05-24T18:01:49.429Z,12.15
2023-05-24T18:04:16.491Z,23.25
2023-05-24T18:06:43.885Z,25.92
2023-05-24T18:09:10.856Z,19.70
2023-05-24T18:11:37.769Z,17.92
2023-05-24T18:14:04.667Z,22.17
2023-05-24T18:16:31.754Z,29.17
2023-05-24T18:18:58.711Z,37.08
2023-05-24T18:21:25.592Z,27.33
2023-05-24T18:23:52.499Z,25.13
2023-05-24T18:26:19.387Z,22.70
2023-05-24T18:28:46.337Z,29.70
2023-05-24T18:31:13.338Z,18.13
2023-05-24T18:33:40.586Z,20.00
2023-05-24T18:36:07.834Z,16.13
2023-05-24T18:38:35.865Z,17.45
2023-05-24T18:41:05.697Z,11.55
2023-05-24T18:43:33.529Z,13.32
2023-05-24T18:46:00.652Z,14.80
2023-05-24T18:48:27.848Z,13.85
2023-05-24T18:50:54.753Z,16.08
2023-05-24T18:53:21.741Z,14.32
2023-05-24T18:55:48.638Z,15.13
2023-05-24T18:58:15.589Z,14.65
2023-05-24T19:00:42.591Z,12.82
2023-05-24T19:03:10.091Z,12.63
2023-05-24T19:05:37.062Z,15.10
2023-05-24T19:08:03.961Z,13.95
2023-05-24T19:10:30.908Z,14.63
2023-05-24T19:12:57.845Z,13.88
2023-05-24T19:15:24.720Z,12.88
2023-05-24T19:17:51.659Z,14.03
2023-05-24T19:20:18.808Z,12.43
2023-05-24T19:22:45.800Z,12.95
2023-05-24T19:25:12.781Z,12.40
2023-05-24T19:27:47.789Z,13.47
2023-05-24T19:30:25.327Z,12.23
2023-05-24T19:32:52.279Z,13.20
2023-05-24T19:35:19.233Z,12.68
2023-05-24T19:37:46.173Z,13.73
2023-05-24T19:40:13.192Z,15.10
2023-05-24T19:42:40.102Z,17.52
2023-05-24T19:45:07.496Z,15.18
2023-05-24T19:47:34.473Z,17.15
2023-05-24T19:50:01.383Z,12.23
2023-05-24T19:52:28.273Z,14.68
2023-05-24T19:54:55.214Z,14.43
2023-05-24T19:57:22.114Z,12.43
2023-05-24T19:59:49.068Z,17.13
2023-05-24T20:02:16.140Z,15.55
2023-05-24T20:04:43.076Z,13.15
2023-05-24T20:07:10.751Z,15.55
2023-05-24T20:09:37.715Z,15.20
2023-05-24T20:12:04.820Z,19.95
2023-05-24T20:14:31.880Z,19.77
2023-05-24T20:17:01.773Z,20.35
2023-05-24T20:19:28.664Z,22.08
2023-05-24T20:21:55.639Z,20.58
2023-05-24T20:24:22.609Z,17.48
2023-05-24T20:26:49.542Z,19.38
2023-05-24T20:29:16.524Z,12.80
2023-05-24T20:31:43.476Z,13.70
2023-05-24T20:34:10.387Z,12.45
2023-05-24T20:36:37.374Z,18.45
2023-05-24T20:39:04.293Z,15.15
2023-05-24T20:41:31.409Z,13.70
2023-05-24T20:43:58.347Z,15.40
2023-05-24T20:46:25.554Z,14.52
2023-05-24T20:48:53.730Z,14.68
2023-05-24T20:51:20.720Z,14.52
2023-05-24T20:53:47.743Z,18.00
2023-05-24T20:56:14.705Z,15.50
2023-05-24T20:58:41.632Z,16.55
2023-05-24T21:01:08.609Z,13.75
2023-05-24T21:03:35.992Z,13.95
2023-05-24T21:06:03.110Z,13.60
2023-05-24T21:08:30.814Z,13.15
2023-05-24T21:10:57.725Z,13.15
2023-05-24T21:13:24.734Z,13.60
2023-05-24T21:15:51.890Z,15.57
2023-05-24T21:18:18.854Z,16.85
2023-05-24T21:20:46.259Z,16.30
2023-05-24T21:23:13.168Z,13.32
2023-05-24T21:25:40.092Z,16.23
2023-05-24T21:28:06.985Z,14.40
2023-05-24T21:30:33.875Z,14.65
2023-05-24T21:33:00.832Z,16.83
2023-05-24T21:35:27.727Z,12.77
2023-05-24T21:37:57.160Z,16.92
2023-05-24T21:40:24.551Z,14.55
2023-05-24T21:42:51.515Z,14.98
2023-05-24T21:45:18.548Z,18.30
2023-05-24T21:47:45.594Z,18.52
2023-05-24T21:50:13.574Z,14.57
2023-05-24T21:52:40.530Z,16.05
2023-05-24T21:55:07.821Z,16.88
2023-05-24T21:57:34.734Z,19.13
2023-05-24T22:00:02.767Z,18.65
2023-05-24T22:02:29.858Z,17.93
2023-05-24T22:04:56.794Z,17.97
2023-05-24T22:07:23.705Z,16.63
2023-05-24T22:09:50.624Z,22.27
2023-05-24T22:12:17.532Z,21.65
2023-05-24T22:14:44.524Z,21.88
2023-05-24T22:17:11.402Z,22.38
2023-05-24T22:19:40.550Z,19.83
2023-05-24T22:22:11.541Z,26.58
2023-05-24T22:24:39.315Z,21.30
2023-05-24T22:27:06.915Z,20.58
2023-05-24T22:29:33.886Z,21.65
2023-05-24T22:32:00.942Z,24.60
2023-05-24T22:34:31.229Z,23.20
2023-05-24T22:36:58.718Z,25.00
2023-05-24T22:39:25.667Z,26.30
2023-05-24T22:41:53.618Z,25.13
2023-05-24T22:44:20.638Z,29.13
2023-05-24T22:46:48.551Z,26.02
2023-05-24T22:49:16.168Z,27.45
2023-05-24T22:51:43.066Z,33.35
2023-05-24T22:54:11.017Z,26.83
2023-05-24T22:56:38.694Z,27.38
2023-05-24T22:59:06.545Z,26.58
2023-05-24T23:01:33.968Z,29.13
2023-05-24T23:04:15.729Z,26.83
2023-05-24T23:06:47.235Z,29.88
2023-05-24T23:09:14.274Z,24.45
2023-05-24T23:11:41.181Z,28.05
2023-05-24T23:14:08.197Z,25.63
2023-05-24T23:16:35.604Z,29.55
2023-05-24T23:19:02.519Z,30.17
2023-05-24T23:21:29.458Z,36.00
2023-05-24T23:23:56.375Z,26.88
2023-05-24T23:26:23.251Z,29.73
2023-05-24T23:28:50.178Z,27.20
2023-05-24T23:31:17.141Z,32.83
2023-05-24T23:33:44.068Z,30.23
2023-05-24T23:36:10.990Z,31.50
2023-05-24T23:38:41.447Z,32.13
2023-05-24T23:41:08.424Z,30.30
2023-05-24T23:43:35.345Z,30.50
2023-05-24T23:46:02.256Z,35.65
2023-05-24T23:48:29.167Z,36.15
2023-05-24T23:50:56.078Z,35.67
2023-05-24T23:53:22.968Z,33.33
2023-05-24T23:55:49.849Z,29.65
2023-05-24T23:58:16.839Z,36.00
